sensor_id;sensor_type;location;lat;lon;timestamp;P1;durP1;ratioP1;P2;durP2;ratioP2
4021;SDS011;2025;48.260;16.432;2023-11-21T00:01:19;4.00;;;0.55;;
4021;SDS011;2025;48.260;16.432;2023-11-21T00:03:48;4.50;;;0.57;;
4021;SDS011;2025;48.260;16.432;2023-11-21T00:06:15;4.40;;;0.50;;
4021;SDS011;2025;48.260;16.432;2023-11-21T00:08:42;3.90;;;0.93;;
4021;SDS011;2025;48.260;16.432;2023-11-21T00:11:09;2.38;;;0.43;;
4021;SDS011;2025;48.260;16.432;2023-11-21T00:13:35;5.85;;;0.90;;
4021;SDS011;2025;48.260;16.432;2023-11-21T00:16:03;4.15;;;0.60;;
4021;SDS011;2025;48.260;16.432;2023-11-21T00:18:30;2.58;;;0.70;;
4021;SDS011;2025;48.260;16.432;2023-11-21T00:20:59;3.33;;;0.50;;
4021;SDS011;2025;48.260;16.432;2023-11-21T00:23:25;3.30;;;0.38;;
4021;SDS011;2025;48.260;16.432;2023-11-21T00:25:52;3.10;;;0.40;;
4021;SDS011;2025;48.260;16.432;2023-11-21T00:28:19;3.17;;;0.40;;
4021;SDS011;2025;48.260;16.432;2023-11-21T00:30:47;3.67;;;0.73;;
4021;SDS011;2025;48.260;16.432;2023-11-21T00:33:14;4.40;;;0.68;;
4021;SDS011;2025;48.260;16.432;2023-11-21T00:35:41;3.30;;;0.50;;
4021;SDS011;2025;48.260;16.432;2023-11-21T09:31:35;6.95;;;1.67;;
4021;SDS011;2025;48.260;16.432;2023-11-21T09:34:05;5.20;;;0.80;;
4021;SDS011;2025;48.260;16.432;2023-11-21T09:36:32;7.22;;;1.60;;
4021;SDS011;2025;48.260;16.432;2023-11-21T09:38:59;5.00;;;1.20;;
4021;SDS011;2025;48.260;16.432;2023-11-21T09:41:29;8.02;;;0.98;;
4021;SDS011;2025;48.260;16.432;2023-11-21T09:44:00;4.40;;;0.80;;
4021;SDS011;2025;48.260;16.432;2023-11-21T09:46:37;5.60;;;1.48;;
4021;SDS011;2025;48.260;16.432;2023-11-21T09:49:08;3.25;;;0.70;;
4021;SDS011;2025;48.260;16.432;2023-11-21T09:51:37;3.60;;;0.98;;
4021;SDS011;2025;48.260;16.432;2023-11-21T09:54:06;3.33;;;0.60;;
4021;SDS011;2025;48.260;16.432;2023-11-21T09:56:35;5.55;;;0.80;;
4021;SDS011;2025;48.260;16.432;2023-11-21T09:59:03;5.65;;;1.17;;
4021;SDS011;2025;48.260;16.432;2023-11-21T10:01:35;4.95;;;1.08;;
4021;SDS011;2025;48.260;16.432;2023-11-21T10:04:05;6.22;;;1.17;;
4021;SDS011;2025;48.260;16.432;2023-11-21T10:06:37;4.22;;;0.63;;
4021;SDS011;2025;48.260;16.432;2023-11-21T10:09:05;3.90;;;0.70;;
4021;SDS011;2025;48.260;16.432;2023-11-21T10:11:37;5.35;;;0.52;;
4021;SDS011;2025;48.260;16.432;2023-11-21T10:14:07;7.53;;;1.17;;
4021;SDS011;2025;48.260;16.432;2023-11-21T10:16:40;6.38;;;0.65;;
4021;SDS011;2025;48.260;16.432;2023-11-21T10:19:09;5.55;;;1.00;;
4021;SDS011;2025;48.260;16.432;2023-11-21T10:21:39;3.55;;;0.73;;
4021;SDS011;2025;48.260;16.432;2023-11-21T10:24:06;4.05;;;0.40;;
4021;SDS011;2025;48.260;16.432;2023-11-21T10:26:34;5.82;;;0.57;;
4021;SDS011;2025;48.260;16.432;2023-11-21T10:29:02;4.38;;;0.98;;
4021;SDS011;2025;48.260;16.432;2023-11-21T10:31:29;4.05;;;1.02;;
4021;SDS011;2025;48.260;16.432;2023-11-21T10:33:59;5.22;;;0.40;;
4021;SDS011;2025;48.260;16.432;2023-11-21T10:36:43;2.33;;;0.50;;
4021;SDS011;2025;48.260;16.432;2023-11-21T10:39:13;5.95;;;0.70;;
4021;SDS011;2025;48.260;16.432;2023-11-21T10:41:43;2.40;;;0.32;;
4021;SDS011;2025;48.260;16.432;2023-11-21T10:44:10;2.92;;;0.40;;
4021;SDS011;2025;48.260;16.432;2023-11-21T10:46:39;3.70;;;0.30;;
4021;SDS011;2025;48.260;16.432;2023-11-21T10:49:09;2.75;;;0.50;;
4021;SDS011;2025;48.260;16.432;2023-11-21T10:51:37;3.47;;;0.50;;
4021;SDS011;2025;48.260;16.432;2023-11-21T10:54:10;3.03;;;0.77;;
4021;SDS011;2025;48.260;16.432;2023-11-21T10:56:37;6.60;;;0.47;;
4021;SDS011;2025;48.260;16.432;2023-11-21T10:59:08;3.40;;;0.43;;
4021;SDS011;2025;48.260;16.432;2023-11-21T11:01:39;6.05;;;0.65;;
4021;SDS011;2025;48.260;16.432;2023-11-21T11:04:10;3.25;;;0.50;;
4021;SDS011;2025;48.260;16.432;2023-11-21T11:06:42;5.57;;;0.60;;
4021;SDS011;2025;48.260;16.432;2023-11-21T11:09:10;3.63;;;0.70;;
4021;SDS011;2025;48.260;16.432;2023-11-21T11:11:41;3.35;;;0.68;;
4021;SDS011;2025;48.260;16.432;2023-11-21T11:14:10;4.18;;;0.73;;
4021;SDS011;2025;48.260;16.432;2023-11-21T11:16:38;3.35;;;0.57;;
4021;SDS011;2025;48.260;16.432;2023-11-21T11:19:06;2.58;;;0.40;;
4021;SDS011;2025;48.260;16.432;2023-11-21T11:21:37;5.25;;;0.63;;
4021;SDS011;2025;48.260;16.432;2023-11-21T11:24:33;4.10;;;0.57;;
4021;SDS011;2025;48.260;16.432;2023-11-21T11:27:22;4.45;;;0.70;;
4021;SDS011;2025;48.260;16.432;2023-11-21T11:29:58;4.95;;;0.43;;
4021;SDS011;2025;48.260;16.432;2023-11-21T11:32:40;5.63;;;0.82;;
4021;SDS011;2025;48.260;16.432;2023-11-21T11:35:18;4.10;;;0.70;;
4021;SDS011;2025;48.260;16.432;2023-11-21T11:37:52;6.75;;;0.57;;
4021;SDS011;2025;48.260;16.432;2023-11-21T11:40:19;4.72;;;0.63;;
4021;SDS011;2025;48.260;16.432;2023-11-21T11:42:55;3.97;;;0.52;;
4021;SDS011;2025;48.260;16.432;2023-11-21T11:45:23;2.85;;;0.52;;
4021;SDS011;2025;48.260;16.432;2023-11-21T11:47:59;4.22;;;0.40;;
4021;SDS011;2025;48.260;16.432;2023-11-21T11:50:27;3.45;;;0.90;;
4021;SDS011;2025;48.260;16.432;2023-11-21T11:52:57;4.75;;;1.38;;
4021;SDS011;2025;48.260;16.432;2023-11-21T11:55:39;3.63;;;0.73;;
4021;SDS011;2025;48.260;16.432;2023-11-21T11:58:06;3.45;;;0.60;;
4021;SDS011;2025;48.260;16.432;2023-11-21T12:00:34;3.95;;;0.50;;
4021;SDS011;2025;48.260;16.432;2023-11-21T12:03:06;4.13;;;0.85;;
4021;SDS011;2025;48.260;16.432;2023-11-21T12:05:35;3.45;;;0.55;;
4021;SDS011;2025;48.260;16.432;2023-11-21T12:08:05;4.35;;;0.63;;
4021;SDS011;2025;48.260;16.432;2023-11-21T12:10:33;5.05;;;0.70;;
4021;SDS011;2025;48.260;16.432;2023-11-21T12:13:02;4.68;;;0.88;;
4021;SDS011;2025;48.260;16.432;2023-11-21T12:15:32;3.38;;;0.60;;
4021;SDS011;2025;48.260;16.432;2023-11-21T12:18:00;3.28;;;0.50;;
4021;SDS011;2025;48.260;16.432;2023-11-21T12:20:27;4.88;;;0.60;;
4021;SDS011;2025;48.260;16.432;2023-11-21T12:22:55;4.47;;;0.63;;
4021;SDS011;2025;48.260;16.432;2023-11-21T12:25:26;4.78;;;0.80;;
4021;SDS011;2025;48.260;16.432;2023-11-21T12:27:55;4.40;;;0.68;;
4021;SDS011;2025;48.260;16.432;2023-11-21T12:30:23;3.67;;;0.50;;
4021;SDS011;2025;48.260;16.432;2023-11-21T12:32:54;4.47;;;0.43;;
4021;SDS011;2025;48.260;16.432;2023-11-21T12:35:24;6.30;;;0.80;;
4021;SDS011;2025;48.260;16.432;2023-11-21T12:37:52;3.78;;;0.90;;
4021;SDS011;2025;48.260;16.432;2023-11-21T12:40:21;3.35;;;0.80;;
4021;SDS011;2025;48.260;16.432;2023-11-21T12:42:52;4.88;;;0.77;;
4021;SDS011;2025;48.260;16.432;2023-11-21T12:45:20;5.32;;;1.00;;
4021;SDS011;2025;48.260;16.432;2023-11-21T12:47:47;4.13;;;0.93;;
4021;SDS011;2025;48.260;16.432;2023-11-21T12:50:15;6.93;;;1.48;;
4021;SDS011;2025;48.260;16.432;2023-11-21T12:52:48;2.72;;;0.73;;
4021;SDS011;2025;48.260;16.432;2023-11-21T12:55:16;5.78;;;0.82;;
4021;SDS011;2025;48.260;16.432;2023-11-21T12:57:47;4.32;;;0.60;;
4021;SDS011;2025;48.260;16.432;2023-11-21T13:00:20;4.63;;;0.93;;
4021;SDS011;2025;48.260;16.432;2023-11-21T13:02:55;3.72;;;0.93;;
4021;SDS011;2025;48.260;16.432;2023-11-21T13:05:24;4.53;;;0.57;;
4021;SDS011;2025;48.260;16.432;2023-11-21T13:07:51;5.85;;;0.90;;
4021;SDS011;2025;48.260;16.432;2023-11-21T13:10:19;4.32;;;0.90;;
4021;SDS011;2025;48.260;16.432;2023-11-21T13:12:52;4.03;;;0.50;;
4021;SDS011;2025;48.260;16.432;2023-11-21T13:15:20;3.80;;;0.43;;
4021;SDS011;2025;48.260;16.432;2023-11-21T13:17:47;4.93;;;0.93;;
4021;SDS011;2025;48.260;16.432;2023-11-21T13:20:16;5.55;;;1.10;;
4021;SDS011;2025;48.260;16.432;2023-11-21T13:22:46;4.18;;;0.88;;
4021;SDS011;2025;48.260;16.432;2023-11-21T13:25:14;7.72;;;0.93;;
4021;SDS011;2025;48.260;16.432;2023-11-21T13:27:43;5.38;;;0.80;;
4021;SDS011;2025;48.260;16.432;2023-11-21T13:30:13;4.75;;;0.90;;
4021;SDS011;2025;48.260;16.432;2023-11-21T13:32:45;2.97;;;0.60;;
4021;SDS011;2025;48.260;16.432;2023-11-21T13:35:15;4.32;;;0.80;;
4021;SDS011;2025;48.260;16.432;2023-11-21T13:37:47;4.03;;;0.95;;
4021;SDS011;2025;48.260;16.432;2023-11-21T13:40:21;6.45;;;1.00;;
4021;SDS011;2025;48.260;16.432;2023-11-21T13:42:52;5.50;;;1.58;;
4021;SDS011;2025;48.260;16.432;2023-11-21T13:45:22;4.20;;;0.50;;
4021;SDS011;2025;48.260;16.432;2023-11-21T13:47:50;5.22;;;1.35;;
4021;SDS011;2025;48.260;16.432;2023-11-21T13:50:22;6.80;;;0.95;;
4021;SDS011;2025;48.260;16.432;2023-11-21T13:52:51;5.63;;;1.10;;
4021;SDS011;2025;48.260;16.432;2023-11-21T13:55:19;3.80;;;0.80;;
4021;SDS011;2025;48.260;16.432;2023-11-21T13:57:50;9.35;;;1.13;;
4021;SDS011;2025;48.260;16.432;2023-11-21T14:00:18;4.95;;;0.93;;
4021;SDS011;2025;48.260;16.432;2023-11-21T14:05:44;4.00;;;0.90;;
4021;SDS011;2025;48.260;16.432;2023-11-21T14:08:12;5.50;;;1.33;;
4021;SDS011;2025;48.260;16.432;2023-11-21T14:10:42;3.60;;;0.60;;
4021;SDS011;2025;48.260;16.432;2023-11-21T14:13:10;4.38;;;1.08;;
4021;SDS011;2025;48.260;16.432;2023-11-21T14:15:38;6.57;;;1.63;;
4021;SDS011;2025;48.260;16.432;2023-11-21T14:18:09;3.70;;;0.73;;
4021;SDS011;2025;48.260;16.432;2023-11-21T14:20:39;5.18;;;1.65;;
4021;SDS011;2025;48.260;16.432;2023-11-21T14:23:07;4.63;;;1.10;;
4021;SDS011;2025;48.260;16.432;2023-11-21T14:25:35;5.50;;;0.70;;
4021;SDS011;2025;48.260;16.432;2023-11-21T14:28:04;5.15;;;1.05;;
4021;SDS011;2025;48.260;16.432;2023-11-21T14:30:32;3.47;;;0.85;;
4021;SDS011;2025;48.260;16.432;2023-11-21T14:33:01;3.58;;;0.63;;
4021;SDS011;2025;48.260;16.432;2023-11-21T14:35:29;4.53;;;0.85;;
4021;SDS011;2025;48.260;16.432;2023-11-21T14:37:57;4.88;;;0.77;;
4021;SDS011;2025;48.260;16.432;2023-11-21T14:40:26;4.80;;;1.15;;
4021;SDS011;2025;48.260;16.432;2023-11-21T14:42:58;5.63;;;1.20;;
4021;SDS011;2025;48.260;16.432;2023-11-21T14:45:25;5.45;;;0.98;;
4021;SDS011;2025;48.260;16.432;2023-11-21T14:47:54;4.22;;;0.82;;
4021;SDS011;2025;48.260;16.432;2023-11-21T14:50:32;4.53;;;0.90;;
4021;SDS011;2025;48.260;16.432;2023-11-21T14:53:16;4.65;;;1.25;;
4021;SDS011;2025;48.260;16.432;2023-11-21T14:56:04;4.57;;;1.05;;
4021;SDS011;2025;48.260;16.432;2023-11-21T14:58:32;5.47;;;0.73;;
4021;SDS011;2025;48.260;16.432;2023-11-21T15:01:00;5.97;;;0.73;;
4021;SDS011;2025;48.260;16.432;2023-11-21T15:03:26;4.65;;;0.95;;
4021;SDS011;2025;48.260;16.432;2023-11-21T15:06:15;4.38;;;0.65;;
4021;SDS011;2025;48.260;16.432;2023-11-21T15:08:45;6.85;;;0.80;;
4021;SDS011;2025;48.260;16.432;2023-11-21T15:11:21;4.38;;;0.95;;
4021;SDS011;2025;48.260;16.432;2023-11-21T15:13:53;4.35;;;1.63;;
4021;SDS011;2025;48.260;16.432;2023-11-21T15:16:19;4.20;;;0.80;;
4021;SDS011;2025;48.260;16.432;2023-11-21T15:18:46;3.65;;;0.85;;
4021;SDS011;2025;48.260;16.432;2023-11-21T15:21:15;4.20;;;0.98;;
4021;SDS011;2025;48.260;16.432;2023-11-21T15:23:42;4.03;;;0.80;;
4021;SDS011;2025;48.260;16.432;2023-11-21T15:26:10;5.60;;;0.85;;
4021;SDS011;2025;48.260;16.432;2023-11-21T15:28:37;5.25;;;1.42;;
4021;SDS011;2025;48.260;16.432;2023-11-21T15:31:05;5.28;;;1.27;;
4021;SDS011;2025;48.260;16.432;2023-11-21T15:33:33;4.43;;;0.93;;
4021;SDS011;2025;48.260;16.432;2023-11-21T15:36:02;5.00;;;1.33;;
4021;SDS011;2025;48.260;16.432;2023-11-21T15:38:31;8.57;;;1.33;;
4021;SDS011;2025;48.260;16.432;2023-11-21T15:40:58;7.57;;;1.27;;
4021;SDS011;2025;48.260;16.432;2023-11-21T15:43:25;5.82;;;1.50;;
4021;SDS011;2025;48.260;16.432;2023-11-21T15:45:53;5.60;;;1.48;;
4021;SDS011;2025;48.260;16.432;2023-11-21T15:48:20;5.55;;;1.45;;
4021;SDS011;2025;48.260;16.432;2023-11-21T15:50:47;7.60;;;1.55;;
4021;SDS011;2025;48.260;16.432;2023-11-21T15:53:17;5.10;;;1.42;;
4021;SDS011;2025;48.260;16.432;2023-11-21T15:55:46;6.50;;;1.60;;
4021;SDS011;2025;48.260;16.432;2023-11-21T15:58:13;5.68;;;2.40;;
4021;SDS011;2025;48.260;16.432;2023-11-21T16:00:40;6.38;;;1.92;;
4021;SDS011;2025;48.260;16.432;2023-11-21T16:03:07;6.35;;;1.77;;
4021;SDS011;2025;48.260;16.432;2023-11-21T16:05:34;4.55;;;1.80;;
4021;SDS011;2025;48.260;16.432;2023-11-21T16:08:02;5.85;;;2.00;;
4021;SDS011;2025;48.260;16.432;2023-11-21T16:10:29;6.00;;;1.83;;
4021;SDS011;2025;48.260;16.432;2023-11-21T16:12:58;8.80;;;2.10;;
4021;SDS011;2025;48.260;16.432;2023-11-21T16:15:25;7.15;;;2.28;;
4021;SDS011;2025;48.260;16.432;2023-11-21T16:17:52;7.28;;;2.40;;
4021;SDS011;2025;48.260;16.432;2023-11-21T16:20:19;7.50;;;2.72;;
4021;SDS011;2025;48.260;16.432;2023-11-21T16:22:46;9.80;;;2.05;;
4021;SDS011;2025;48.260;16.432;2023-11-21T16:25:14;6.60;;;1.88;;
4021;SDS011;2025;48.260;16.432;2023-11-21T16:27:41;6.50;;;1.70;;
4021;SDS011;2025;48.260;16.432;2023-11-21T16:30:10;5.07;;;2.35;;
4021;SDS011;2025;48.260;16.432;2023-11-21T16:32:38;6.55;;;2.45;;
4021;SDS011;2025;48.260;16.432;2023-11-21T16:35:07;7.65;;;3.05;;
4021;SDS011;2025;48.260;16.432;2023-11-21T16:37:35;7.97;;;3.17;;
4021;SDS011;2025;48.260;16.432;2023-11-21T16:40:02;7.57;;;2.00;;
4021;SDS011;2025;48.260;16.432;2023-11-21T16:42:33;11.98;;;2.80;;
4021;SDS011;2025;48.260;16.432;2023-11-21T16:45:03;7.38;;;2.55;;
4021;SDS011;2025;48.260;16.432;2023-11-21T16:47:32;8.13;;;2.75;;
4021;SDS011;2025;48.260;16.432;2023-11-21T16:49:59;7.55;;;2.42;;
4021;SDS011;2025;48.260;16.432;2023-11-21T16:52:26;7.00;;;2.22;;
4021;SDS011;2025;48.260;16.432;2023-11-21T16:54:53;8.38;;;3.03;;
4021;SDS011;2025;48.260;16.432;2023-11-21T16:57:20;7.68;;;2.83;;
4021;SDS011;2025;48.260;16.432;2023-11-21T16:59:47;7.53;;;2.55;;
4021;SDS011;2025;48.260;16.432;2023-11-21T17:02:16;6.22;;;2.67;;
4021;SDS011;2025;48.260;16.432;2023-11-21T17:04:45;6.60;;;2.58;;
4021;SDS011;2025;48.260;16.432;2023-11-21T17:07:14;5.70;;;1.85;;
4021;SDS011;2025;48.260;16.432;2023-11-21T17:09:41;8.48;;;2.63;;
4021;SDS011;2025;48.260;16.432;2023-11-21T17:12:09;6.38;;;2.65;;
4021;SDS011;2025;48.260;16.432;2023-11-21T17:14:36;8.30;;;2.50;;
4021;SDS011;2025;48.260;16.432;2023-11-21T17:17:04;8.00;;;2.50;;
4021;SDS011;2025;48.260;16.432;2023-11-21T17:19:33;7.47;;;2.65;;
4021;SDS011;2025;48.260;16.432;2023-11-21T17:22:02;10.43;;;3.03;;
4021;SDS011;2025;48.260;16.432;2023-11-21T17:24:30;5.97;;;2.45;;
4021;SDS011;2025;48.260;16.432;2023-11-21T17:26:58;6.93;;;2.22;;
4021;SDS011;2025;48.260;16.432;2023-11-21T17:29:25;6.25;;;2.28;;
4021;SDS011;2025;48.260;16.432;2023-11-21T17:31:52;7.18;;;2.80;;
4021;SDS011;2025;48.260;16.432;2023-11-21T17:34:19;7.65;;;2.40;;
4021;SDS011;2025;48.260;16.432;2023-11-21T17:36:45;6.05;;;2.55;;
4021;SDS011;2025;48.260;16.432;2023-11-21T17:39:14;6.97;;;2.28;;
4021;SDS011;2025;48.260;16.432;2023-11-21T17:41:42;8.02;;;2.42;;
4021;SDS011;2025;48.260;16.432;2023-11-21T17:44:09;6.93;;;2.25;;
4021;SDS011;2025;48.260;16.432;2023-11-21T17:46:37;6.05;;;1.90;;
4021;SDS011;2025;48.260;16.432;2023-11-21T17:49:04;5.70;;;2.00;;
4021;SDS011;2025;48.260;16.432;2023-11-21T17:51:36;7.53;;;2.70;;
4021;SDS011;2025;48.260;16.432;2023-11-21T17:54:04;5.88;;;1.98;;
4021;SDS011;2025;48.260;16.432;2023-11-21T17:56:33;6.03;;;2.40;;
4021;SDS011;2025;48.260;16.432;2023-11-21T17:59:01;7.13;;;2.15;;
4021;SDS011;2025;48.260;16.432;2023-11-21T18:01:34;7.70;;;1.77;;
4021;SDS011;2025;48.260;16.432;2023-11-21T18:04:03;8.15;;;2.17;;
4021;SDS011;2025;48.260;16.432;2023-11-21T18:06:30;5.32;;;2.55;;
4021;SDS011;2025;48.260;16.432;2023-11-21T18:08:58;6.07;;;1.83;;
4021;SDS011;2025;48.260;16.432;2023-11-21T18:11:25;6.60;;;1.60;;
4021;SDS011;2025;48.260;16.432;2023-11-21T18:13:54;5.07;;;1.65;;
4021;SDS011;2025;48.260;16.432;2023-11-21T18:16:21;3.85;;;1.58;;
4021;SDS011;2025;48.260;16.432;2023-11-21T18:18:48;5.35;;;1.50;;
4021;SDS011;2025;48.260;16.432;2023-11-21T18:21:16;4.50;;;1.23;;
4021;SDS011;2025;48.260;16.432;2023-11-21T18:23:43;4.22;;;1.50;;
4021;SDS011;2025;48.260;16.432;2023-11-21T18:26:15;5.57;;;1.30;;
4021;SDS011;2025;48.260;16.432;2023-11-21T18:28:43;5.10;;;1.67;;
4021;SDS011;2025;48.260;16.432;2023-11-21T18:31:11;4.88;;;1.67;;
4021;SDS011;2025;48.260;16.432;2023-11-21T18:33:40;5.05;;;1.60;;
4021;SDS011;2025;48.260;16.432;2023-11-21T18:36:07;5.35;;;1.75;;
4021;SDS011;2025;48.260;16.432;2023-11-21T18:38:34;5.75;;;1.52;;
4021;SDS011;2025;48.260;16.432;2023-11-21T18:41:02;4.65;;;1.58;;
4021;SDS011;2025;48.260;16.432;2023-11-21T18:43:29;5.93;;;1.38;;
4021;SDS011;2025;48.260;16.432;2023-11-21T18:45:55;5.43;;;1.45;;
4021;SDS011;2025;48.260;16.432;2023-11-21T18:48:24;4.95;;;1.13;;
4021;SDS011;2025;48.260;16.432;2023-11-21T18:50:51;4.30;;;1.48;;
4021;SDS011;2025;48.260;16.432;2023-11-21T18:53:20;4.57;;;1.42;;
4021;SDS011;2025;48.260;16.432;2023-11-21T18:55:47;5.93;;;1.45;;
4021;SDS011;2025;48.260;16.432;2023-11-21T18:58:14;3.92;;;1.33;;
4021;SDS011;2025;48.260;16.432;2023-11-21T19:00:41;5.20;;;1.35;;
4021;SDS011;2025;48.260;16.432;2023-11-21T19:03:08;5.57;;;1.50;;
4021;SDS011;2025;48.260;16.432;2023-11-21T19:05:37;4.28;;;1.30;;
4021;SDS011;2025;48.260;16.432;2023-11-21T19:08:05;5.07;;;1.58;;
4021;SDS011;2025;48.260;16.432;2023-11-21T19:10:32;5.78;;;1.42;;
4021;SDS011;2025;48.260;16.432;2023-11-21T19:12:59;7.05;;;1.75;;
4021;SDS011;2025;48.260;16.432;2023-11-21T19:15:28;5.43;;;1.98;;
4021;SDS011;2025;48.260;16.432;2023-11-21T19:17:56;4.78;;;1.52;;
4021;SDS011;2025;48.260;16.432;2023-11-21T19:20:24;5.13;;;1.33;;
4021;SDS011;2025;48.260;16.432;2023-11-21T19:22:52;4.72;;;1.63;;
4021;SDS011;2025;48.260;16.432;2023-11-21T19:25:20;4.10;;;1.42;;
4021;SDS011;2025;48.260;16.432;2023-11-21T19:27:48;6.13;;;1.92;;
4021;SDS011;2025;48.260;16.432;2023-11-21T19:30:15;5.32;;;1.50;;
4021;SDS011;2025;48.260;16.432;2023-11-21T19:32:43;5.47;;;1.73;;
4021;SDS011;2025;48.260;16.432;2023-11-21T19:35:10;7.25;;;1.92;;
4021;SDS011;2025;48.260;16.432;2023-11-21T19:37:37;5.40;;;1.60;;
4021;SDS011;2025;48.260;16.432;2023-11-21T19:40:06;8.13;;;2.60;;
4021;SDS011;2025;48.260;16.432;2023-11-21T19:42:34;7.60;;;1.98;;
4021;SDS011;2025;48.260;16.432;2023-11-21T19:45:02;8.38;;;2.83;;
4021;SDS011;2025;48.260;16.432;2023-11-21T19:47:29;6.18;;;2.42;;
4021;SDS011;2025;48.260;16.432;2023-11-21T19:50:00;6.57;;;2.47;;
4021;SDS011;2025;48.260;16.432;2023-11-21T19:52:28;5.10;;;1.90;;
4021;SDS011;2025;48.260;16.432;2023-11-21T19:54:55;6.47;;;2.13;;
4021;SDS011;2025;48.260;16.432;2023-11-21T19:57:24;6.20;;;2.05;;
4021;SDS011;2025;48.260;16.432;2023-11-21T19:59:51;6.07;;;2.17;;
4021;SDS011;2025;48.260;16.432;2023-11-21T20:02:20;6.65;;;2.80;;
4021;SDS011;2025;48.260;16.432;2023-11-21T20:04:47;6.00;;;2.42;;
4021;SDS011;2025;48.260;16.432;2023-11-21T20:07:14;7.57;;;2.53;;
4021;SDS011;2025;48.260;16.432;2023-11-21T20:09:46;7.80;;;3.05;;
4021;SDS011;2025;48.260;16.432;2023-11-21T20:12:14;8.40;;;2.25;;
4021;SDS011;2025;48.260;16.432;2023-11-21T20:14:43;7.47;;;2.75;;
4021;SDS011;2025;48.260;16.432;2023-11-21T20:17:11;6.25;;;2.53;;
4021;SDS011;2025;48.260;16.432;2023-11-21T20:19:39;4.68;;;1.80;;
4021;SDS011;2025;48.260;16.432;2023-11-21T20:22:07;8.10;;;2.30;;
4021;SDS011;2025;48.260;16.432;2023-11-21T20:24:34;10.82;;;2.35;;
4021;SDS011;2025;48.260;16.432;2023-11-21T20:27:02;7.10;;;2.60;;
4021;SDS011;2025;48.260;16.432;2023-11-21T20:29:30;6.10;;;2.05;;
4021;SDS011;2025;48.260;16.432;2023-11-21T20:32:00;6.55;;;2.63;;
4021;SDS011;2025;48.260;16.432;2023-11-21T20:34:30;5.90;;;2.30;;
4021;SDS011;2025;48.260;16.432;2023-11-21T20:36:58;6.78;;;2.10;;
4021;SDS011;2025;48.260;16.432;2023-11-21T20:39:25;5.82;;;2.17;;
4021;SDS011;2025;48.260;16.432;2023-11-21T20:41:52;5.40;;;1.90;;
4021;SDS011;2025;48.260;16.432;2023-11-21T20:44:19;7.45;;;2.47;;
4021;SDS011;2025;48.260;16.432;2023-11-21T20:46:48;5.25;;;1.95;;
4021;SDS011;2025;48.260;16.432;2023-11-21T20:49:16;6.55;;;2.22;;
4021;SDS011;2025;48.260;16.432;2023-11-21T20:51:43;6.22;;;2.55;;
4021;SDS011;2025;48.260;16.432;2023-11-21T20:54:11;6.30;;;2.40;;
4021;SDS011;2025;48.260;16.432;2023-11-21T20:56:38;7.65;;;2.33;;
4021;SDS011;2025;48.260;16.432;2023-11-21T20:59:06;6.38;;;2.35;;
4021;SDS011;2025;48.260;16.432;2023-11-21T21:01:33;7.03;;;2.90;;
4021;SDS011;2025;48.260;16.432;2023-11-21T21:04:01;7.65;;;2.47;;
4021;SDS011;2025;48.260;16.432;2023-11-21T21:06:29;6.93;;;3.10;;
4021;SDS011;2025;48.260;16.432;2023-11-21T21:08:56;6.13;;;2.10;;
4021;SDS011;2025;48.260;16.432;2023-11-21T21:11:24;7.75;;;2.95;;
4021;SDS011;2025;48.260;16.432;2023-11-21T21:13:51;6.05;;;2.42;;
4021;SDS011;2025;48.260;16.432;2023-11-21T21:16:19;9.27;;;2.78;;
4021;SDS011;2025;48.260;16.432;2023-11-21T21:18:51;7.88;;;2.88;;
4021;SDS011;2025;48.260;16.432;2023-11-21T21:21:18;10.45;;;2.72;;
4021;SDS011;2025;48.260;16.432;2023-11-21T21:23:46;6.15;;;2.65;;
4021;SDS011;2025;48.260;16.432;2023-11-21T21:26:14;6.88;;;2.53;;
4021;SDS011;2025;48.260;16.432;2023-11-21T21:28:41;9.80;;;3.22;;
4021;SDS011;2025;48.260;16.432;2023-11-21T21:31:08;7.47;;;2.80;;
4021;SDS011;2025;48.260;16.432;2023-11-21T21:33:37;6.85;;;2.83;;
4021;SDS011;2025;48.260;16.432;2023-11-21T21:36:04;6.93;;;3.30;;
4021;SDS011;2025;48.260;16.432;2023-11-21T21:38:31;6.93;;;2.38;;
4021;SDS011;2025;48.260;16.432;2023-11-21T21:41:00;9.20;;;3.60;;
4021;SDS011;2025;48.260;16.432;2023-11-21T21:43:26;9.73;;;2.92;;
4021;SDS011;2025;48.260;16.432;2023-11-21T21:45:53;8.95;;;3.67;;
4021;SDS011;2025;48.260;16.432;2023-11-21T21:48:21;8.18;;;3.53;;
4021;SDS011;2025;48.260;16.432;2023-11-21T21:50:48;6.95;;;3.35;;
4021;SDS011;2025;48.260;16.432;2023-11-21T21:53:14;9.55;;;4.45;;
4021;SDS011;2025;48.260;16.432;2023-11-21T21:55:41;9.88;;;3.95;;
4021;SDS011;2025;48.260;16.432;2023-11-21T21:58:10;11.85;;;4.38;;
4021;SDS011;2025;48.260;16.432;2023-11-21T22:00:37;7.75;;;3.85;;
4021;SDS011;2025;48.260;16.432;2023-11-21T22:03:05;8.13;;;3.30;;
4021;SDS011;2025;48.260;16.432;2023-11-21T22:05:32;8.95;;;3.72;;
4021;SDS011;2025;48.260;16.432;2023-11-21T22:08:00;10.05;;;4.00;;
4021;SDS011;2025;48.260;16.432;2023-11-21T22:10:27;7.13;;;3.03;;
4021;SDS011;2025;48.260;16.432;2023-11-21T22:12:54;8.43;;;2.95;;
4021;SDS011;2025;48.260;16.432;2023-11-21T22:15:23;9.23;;;3.20;;
4021;SDS011;2025;48.260;16.432;2023-11-21T22:17:50;9.32;;;3.40;;
4021;SDS011;2025;48.260;16.432;2023-11-21T22:20:18;7.85;;;3.05;;
4021;SDS011;2025;48.260;16.432;2023-11-21T22:22:47;6.95;;;2.90;;
4021;SDS011;2025;48.260;16.432;2023-11-21T22:25:14;8.35;;;3.35;;
4021;SDS011;2025;48.260;16.432;2023-11-21T22:27:41;6.88;;;2.92;;
4021;SDS011;2025;48.260;16.432;2023-11-21T22:30:08;6.30;;;3.20;;
4021;SDS011;2025;48.260;16.432;2023-11-21T22:32:38;7.97;;;3.30;;
4021;SDS011;2025;48.260;16.432;2023-11-21T22:35:05;8.80;;;3.92;;
4021;SDS011;2025;48.260;16.432;2023-11-21T22:37:34;9.98;;;3.55;;
4021;SDS011;2025;48.260;16.432;2023-11-21T22:40:02;12.32;;;3.58;;
4021;SDS011;2025;48.260;16.432;2023-11-21T22:42:31;7.72;;;3.08;;
4021;SDS011;2025;48.260;16.432;2023-11-21T22:44:58;7.10;;;2.75;;
4021;SDS011;2025;48.260;16.432;2023-11-21T22:47:25;6.93;;;2.90;;
4021;SDS011;2025;48.260;16.432;2023-11-21T22:49:54;7.35;;;3.03;;
4021;SDS011;2025;48.260;16.432;2023-11-21T22:52:21;6.97;;;3.55;;
4021;SDS011;2025;48.260;16.432;2023-11-21T22:54:49;8.32;;;2.97;;
4021;SDS011;2025;48.260;16.432;2023-11-21T22:57:16;8.38;;;2.92;;
4021;SDS011;2025;48.260;16.432;2023-11-21T22:59:43;7.60;;;3.30;;
4021;SDS011;2025;48.260;16.432;2023-11-21T23:02:11;7.38;;;3.10;;
4021;SDS011;2025;48.260;16.432;2023-11-21T23:04:38;8.27;;;3.65;;
4021;SDS011;2025;48.260;16.432;2023-11-21T23:07:07;7.30;;;3.83;;
4021;SDS011;2025;48.260;16.432;2023-11-21T23:09:34;7.95;;;3.55;;
4021;SDS011;2025;48.260;16.432;2023-11-21T23:12:01;8.93;;;2.95;;
4021;SDS011;2025;48.260;16.432;2023-11-21T23:14:29;12.13;;;3.47;;
4021;SDS011;2025;48.260;16.432;2023-11-21T23:16:57;7.35;;;3.30;;
4021;SDS011;2025;48.260;16.432;2023-11-21T23:19:24;8.30;;;3.20;;
4021;SDS011;2025;48.260;16.432;2023-11-21T23:21:51;10.93;;;3.30;;
4021;SDS011;2025;48.260;16.432;2023-11-21T23:24:20;7.80;;;3.05;;
4021;SDS011;2025;48.260;16.432;2023-11-21T23:26:48;7.38;;;3.30;;
4021;SDS011;2025;48.260;16.432;2023-11-21T23:29:16;7.13;;;2.97;;
4021;SDS011;2025;48.260;16.432;2023-11-21T23:31:43;8.25;;;3.33;;
4021;SDS011;2025;48.260;16.432;2023-11-21T23:34:10;9.73;;;3.95;;
4021;SDS011;2025;48.260;16.432;2023-11-21T23:36:38;10.80;;;4.38;;
4021;SDS011;2025;48.260;16.432;2023-11-21T23:39:05;8.55;;;3.83;;
4021;SDS011;2025;48.260;16.432;2023-11-21T23:41:34;12.32;;;3.58;;
4021;SDS011;2025;48.260;16.432;2023-11-21T23:44:01;8.23;;;4.05;;
4021;SDS011;2025;48.260;16.432;2023-11-21T23:46:30;8.30;;;3.38;;
4021;SDS011;2025;48.260;16.432;2023-11-21T23:49:00;9.00;;;3.35;;
4021;SDS011;2025;48.260;16.432;2023-11-21T23:51:30;7.97;;;3.42;;
4021;SDS011;2025;48.260;16.432;2023-11-21T23:53:57;8.57;;;3.55;;
4021;SDS011;2025;48.260;16.432;2023-11-21T23:56:24;9.82;;;3.55;;
4021;SDS011;2025;48.260;16.432;2023-11-21T23:58:52;10.85;;;4.32;;
